createdAt,value
2022-11-29T00:01:57.255Z,17.23
2022-11-29T00:04:44.056Z,15.07
2022-11-29T00:07:30.648Z,13.97
2022-11-29T00:10:17.322Z,13.60
2022-11-29T00:13:03.796Z,14.87
2022-11-29T00:15:50.310Z,14.20
2022-11-29T00:18:36.787Z,15.77
2022-11-29T00:21:23.282Z,16.80
2022-11-29T00:24:09.773Z,16.53
2022-11-29T00:26:56.242Z,15.40
2022-11-29T00:29:42.745Z,15.20
2022-11-29T00:32:29.215Z,13.57
2022-11-29T00:35:15.715Z,15.17
2022-11-29T00:38:02.192Z,13.47
2022-11-29T00:40:48.712Z,15.23
2022-11-29T00:43:35.188Z,13.40
2022-11-29T00:46:21.719Z,14.53
2022-11-29T00:49:08.257Z,18.90
2022-11-29T00:51:54.758Z,16.40
2022-11-29T00:54:41.481Z,15.40
2022-11-29T00:57:28.342Z,19.73
2022-11-29T01:00:14.808Z,22.00
2022-11-29T01:03:01.300Z,17.10
2022-11-29T01:05:47.778Z,18.13
2022-11-29T01:08:34.279Z,16.80
2022-11-29T01:11:20.753Z,18.80
2022-11-29T01:14:07.239Z,18.07
2022-11-29T01:16:53.754Z,18.60
2022-11-29T01:19:40.305Z,16.33
2022-11-29T01:22:26.772Z,15.73
2022-11-29T01:25:13.280Z,17.10
2022-11-29T01:27:59.743Z,16.47
2022-11-29T01:30:46.297Z,14.67
2022-11-29T01:33:32.787Z,14.60
2022-11-29T01:36:19.413Z,16.43
2022-11-29T01:39:05.900Z,17.77
2022-11-29T01:41:52.386Z,21.17
2022-11-29T01:44:38.846Z,16.50
2022-11-29T01:47:25.373Z,16.37
2022-11-29T01:50:11.838Z,16.27
2022-11-29T01:52:58.351Z,30.67
2022-11-29T01:55:44.848Z,56.67
2022-11-29T01:58:31.592Z,91.37
2022-11-29T02:01:18.123Z,63.57
2022-11-29T02:04:04.668Z,32.37
2022-11-29T02:06:51.144Z,22.73
2022-11-29T02:09:37.654Z,21.53
2022-11-29T02:12:24.128Z,18.00
2022-11-29T02:15:10.918Z,19.20
2022-11-29T02:17:57.396Z,18.00
2022-11-29T02:20:44.100Z,18.80
2022-11-29T02:23:30.600Z,19.73
2022-11-29T02:26:17.068Z,20.70
2022-11-29T02:29:03.657Z,17.93
2022-11-29T02:31:50.126Z,16.27
2022-11-29T02:34:36.655Z,20.13
2022-11-29T02:37:23.131Z,19.93
2022-11-29T02:40:09.639Z,21.33
2022-11-29T02:42:57.106Z,18.77
2022-11-29T02:45:43.731Z,18.20
2022-11-29T02:48:30.254Z,16.73
2022-11-29T02:51:16.755Z,19.00
2022-11-29T02:54:03.233Z,18.20
2022-11-29T02:56:49.731Z,19.53
2022-11-29T02:59:36.254Z,20.47
2022-11-29T03:02:22.810Z,17.67
2022-11-29T03:05:09.324Z,19.43
2022-11-29T03:07:55.931Z,25.50
2022-11-29T03:10:42.476Z,69.13
2022-11-29T03:13:28.964Z,94.73
2022-11-29T03:16:15.472Z,90.47
2022-11-29T03:19:03.023Z,83.90
2022-11-29T03:21:49.495Z,68.30
2022-11-29T03:24:35.996Z,74.13
2022-11-29T03:27:22.461Z,39.27
2022-11-29T03:30:08.992Z,31.23
2022-11-29T03:32:55.472Z,30.40
2022-11-29T03:35:41.955Z,31.03
2022-11-29T03:38:28.427Z,27.40
2022-11-29T03:41:14.933Z,34.77
2022-11-29T03:44:01.414Z,32.67
2022-11-29T03:46:47.916Z,27.47
2022-11-29T03:49:34.387Z,25.73
2022-11-29T03:52:20.900Z,23.57
2022-11-29T03:55:07.379Z,25.53
2022-11-29T03:57:53.869Z,24.00
2022-11-29T04:00:40.341Z,24.47
2022-11-29T04:03:26.829Z,20.93
2022-11-29T04:06:13.367Z,25.03
2022-11-29T04:08:59.839Z,21.67
2022-11-29T04:11:46.343Z,23.00
2022-11-29T04:14:32.812Z,19.17
2022-11-29T04:17:19.301Z,21.93
2022-11-29T04:20:05.815Z,21.37
2022-11-29T04:22:52.370Z,22.10
2022-11-29T04:25:38.848Z,20.00
2022-11-29T04:28:25.328Z,22.53
2022-11-29T04:31:11.848Z,24.40
2022-11-29T04:33:58.377Z,21.77
2022-11-29T04:36:44.859Z,23.77
2022-11-29T04:39:31.374Z,34.40
2022-11-29T04:42:17.843Z,43.90
2022-11-29T04:45:04.383Z,45.43
2022-11-29T04:47:50.878Z,48.90
2022-11-29T04:50:37.344Z,52.13
2022-11-29T04:53:23.860Z,85.90
2022-11-29T04:56:10.336Z,74.23
2022-11-29T04:58:56.842Z,75.50
2022-11-29T05:01:43.367Z,78.50
2022-11-29T05:04:29.903Z,51.17
2022-11-29T05:07:16.445Z,37.33
2022-11-29T05:10:02.960Z,27.43
2022-11-29T05:12:49.502Z,26.43
2022-11-29T05:15:36.093Z,23.97
2022-11-29T05:18:22.599Z,21.10
2022-11-29T05:21:09.099Z,23.37
2022-11-29T05:23:55.572Z,23.10
2022-11-29T05:26:42.060Z,23.83
2022-11-29T05:29:28.523Z,23.27
2022-11-29T05:32:15.040Z,24.83
2022-11-29T05:35:01.510Z,24.07
2022-11-29T05:37:47.987Z,21.10
2022-11-29T05:40:34.685Z,20.00
2022-11-29T05:43:21.173Z,20.07
2022-11-29T05:46:07.674Z,22.17
2022-11-29T05:48:54.211Z,19.03
2022-11-29T05:51:40.715Z,20.03
2022-11-29T05:54:27.638Z,22.53
2022-11-29T05:57:14.117Z,25.27
2022-11-29T06:00:00.795Z,22.10
2022-11-29T06:02:47.329Z,24.30
2022-11-29T06:05:33.839Z,25.40
2022-11-29T06:08:20.315Z,20.87
2022-11-29T06:11:06.824Z,21.03
2022-11-29T06:13:53.311Z,22.47
2022-11-29T06:16:39.788Z,23.07
2022-11-29T06:19:26.279Z,21.63
2022-11-29T06:22:12.743Z,24.67
2022-11-29T06:24:59.239Z,22.80
2022-11-29T06:27:45.892Z,21.90
2022-11-29T06:30:32.468Z,23.17
2022-11-29T06:33:18.963Z,21.83
2022-11-29T06:36:05.503Z,23.07
2022-11-29T06:38:51.975Z,21.77
2022-11-29T06:41:38.477Z,20.37
2022-11-29T06:44:24.952Z,22.67
2022-11-29T06:47:11.455Z,22.73
2022-11-29T06:49:57.932Z,22.30
2022-11-29T06:52:44.410Z,23.43
2022-11-29T06:55:30.908Z,24.17
2022-11-29T06:58:17.392Z,27.03
2022-11-29T07:01:04.038Z,22.87
2022-11-29T07:03:50.515Z,22.27
2022-11-29T07:06:37.010Z,22.00
2022-11-29T07:09:23.479Z,19.83
2022-11-29T07:12:09.993Z,23.13
2022-11-29T07:14:56.463Z,21.77
2022-11-29T07:17:42.954Z,21.50
2022-11-29T07:20:29.458Z,21.20
2022-11-29T07:23:17.368Z,24.30
2022-11-29T07:26:03.915Z,24.03
2022-11-29T07:28:50.383Z,20.93
2022-11-29T07:31:36.898Z,19.97
2022-11-29T07:34:23.405Z,21.03
2022-11-29T07:37:09.905Z,21.40
2022-11-29T07:39:56.379Z,22.23
2022-11-29T07:42:43.039Z,22.43
2022-11-29T07:45:29.521Z,23.73
2022-11-29T07:48:16.021Z,22.10
2022-11-29T07:51:02.492Z,23.13
2022-11-29T07:53:48.988Z,21.97
2022-11-29T07:56:35.458Z,19.73
2022-11-29T07:59:21.959Z,17.97
2022-11-29T08:02:11.701Z,23.13
2022-11-29T08:04:58.492Z,21.77
2022-11-29T08:07:45.033Z,19.97
2022-11-29T08:10:31.552Z,20.07
2022-11-29T08:13:18.056Z,18.23
2022-11-29T08:16:04.605Z,18.60
2022-11-29T08:18:52.028Z,22.50
2022-11-29T08:21:38.498Z,25.60
2022-11-29T08:24:25.007Z,20.27
2022-11-29T08:27:11.492Z,18.33
2022-11-29T08:29:57.987Z,19.63
2022-11-29T08:32:51.114Z,19.40
2022-11-29T08:35:38.042Z,15.43
2022-11-29T08:38:24.515Z,18.63
2022-11-29T08:41:11.015Z,16.43
2022-11-29T08:43:57.493Z,17.10
2022-11-29T08:46:43.997Z,16.47
2022-11-29T08:49:30.503Z,17.10
2022-11-29T08:52:17.015Z,15.27
2022-11-29T08:55:03.593Z,14.40
2022-11-29T08:57:50.063Z,15.90
2022-11-29T09:00:36.575Z,16.23
2022-11-29T09:03:23.041Z,16.93
2022-11-29T09:06:12.495Z,15.17
2022-11-29T09:08:59.354Z,13.97
2022-11-29T09:11:49.254Z,15.97
2022-11-29T09:14:36.147Z,15.33
2022-11-29T09:17:22.692Z,16.23
2022-11-29T09:20:09.191Z,16.13
2022-11-29T09:22:55.702Z,13.67
2022-11-29T09:25:42.214Z,16.83
2022-11-29T09:28:28.677Z,15.43
2022-11-29T09:31:15.259Z,17.97
2022-11-29T09:34:01.772Z,17.00
2022-11-29T09:36:48.275Z,17.70
2022-11-29T09:39:34.753Z,16.90
2022-11-29T09:42:21.344Z,16.37
2022-11-29T09:45:07.827Z,14.83
2022-11-29T09:47:54.329Z,14.67
2022-11-29T09:50:40.800Z,14.73
2022-11-29T09:53:27.283Z,13.17
2022-11-29T09:56:13.765Z,15.90
2022-11-29T09:59:00.284Z,15.17
2022-11-29T10:01:46.752Z,14.40
2022-11-29T10:04:33.263Z,14.53
2022-11-29T10:07:19.782Z,15.87
2022-11-29T10:10:06.448Z,14.70
2022-11-29T10:12:52.924Z,16.53
2022-11-29T10:15:39.419Z,16.17
2022-11-29T10:18:25.891Z,15.33
2022-11-29T10:21:12.401Z,16.40
2022-11-29T10:23:58.881Z,14.57
2022-11-29T10:26:45.384Z,13.43
2022-11-29T10:29:31.851Z,16.40
2022-11-29T10:32:18.361Z,16.37
2022-11-29T10:35:04.835Z,15.80
2022-11-29T10:38:14.561Z,15.07
2022-11-29T10:40:57.784Z,15.33
2022-11-29T10:43:44.278Z,13.83
2022-11-29T10:46:30.800Z,13.27
2022-11-29T10:49:17.334Z,14.60
2022-11-29T10:52:04.820Z,14.40
2022-11-29T10:54:51.316Z,14.90
2022-11-29T10:57:37.800Z,16.03
2022-11-29T11:00:24.308Z,15.73
2022-11-29T11:03:10.780Z,14.67
2022-11-29T11:05:58.136Z,17.43
2022-11-29T11:08:44.677Z,14.90
2022-11-29T11:11:32.206Z,15.30
2022-11-29T11:14:18.692Z,14.60
2022-11-29T11:17:05.271Z,14.17
2022-11-29T11:19:51.775Z,14.30
2022-11-29T11:22:38.308Z,13.77
2022-11-29T11:25:24.792Z,14.53
2022-11-29T11:28:11.288Z,14.73
2022-11-29T11:30:57.810Z,14.93
2022-11-29T11:33:44.375Z,15.90
2022-11-29T11:36:30.854Z,16.43
2022-11-29T11:39:17.347Z,17.87
2022-11-29T11:42:03.854Z,21.97
2022-11-29T11:44:50.351Z,18.03
2022-11-29T11:47:36.823Z,15.37
2022-11-29T11:50:23.319Z,16.23
2022-11-29T11:53:09.793Z,15.03
2022-11-29T11:55:56.314Z,17.63
2022-11-29T11:58:42.798Z,18.30
2022-11-29T12:01:29.284Z,18.93
2022-11-29T12:04:15.776Z,17.00
2022-11-29T12:07:02.246Z,15.83
2022-11-29T12:09:48.727Z,18.70
2022-11-29T12:12:35.223Z,18.53
2022-11-29T12:15:21.732Z,20.27
2022-11-29T12:18:08.199Z,21.77
2022-11-29T12:20:54.692Z,19.47
2022-11-29T12:23:41.215Z,21.57
2022-11-29T12:26:56.024Z,19.63
2022-11-29T12:29:34.208Z,19.80
2022-11-29T12:32:20.716Z,22.33
2022-11-29T12:35:07.185Z,18.23
2022-11-29T12:37:53.708Z,22.13
2022-11-29T12:40:40.176Z,21.03
2022-11-29T12:43:26.701Z,22.23
2022-11-29T12:46:13.270Z,22.17
2022-11-29T12:48:59.828Z,20.23
2022-11-29T12:51:46.303Z,21.73
2022-11-29T12:54:32.848Z,22.17
2022-11-29T12:57:19.323Z,18.63
2022-11-29T13:00:05.840Z,20.37
2022-11-29T13:02:52.357Z,16.40
2022-11-29T13:05:38.915Z,21.83
2022-11-29T13:08:25.389Z,23.33
2022-11-29T13:11:11.900Z,19.00
2022-11-29T13:14:13.779Z,18.93
2022-11-29T13:17:04.857Z,20.30
2022-11-29T13:19:51.328Z,22.97
2022-11-29T13:22:37.836Z,22.17
2022-11-29T13:25:24.312Z,22.60
2022-11-29T13:28:10.800Z,23.90
2022-11-29T13:30:57.347Z,24.07
2022-11-29T13:33:43.864Z,26.13
2022-11-29T13:36:30.343Z,19.47
2022-11-29T13:39:16.817Z,20.43
2022-11-29T13:42:03.324Z,23.73
2022-11-29T13:44:49.805Z,22.80
2022-11-29T13:47:36.300Z,26.17
2022-11-29T13:50:22.791Z,23.80
2022-11-29T13:53:09.306Z,21.73
2022-11-29T13:55:55.793Z,22.73
2022-11-29T13:58:42.295Z,23.37
2022-11-29T14:01:28.900Z,24.23
2022-11-29T14:04:15.476Z,21.27
2022-11-29T14:07:01.947Z,26.20
2022-11-29T14:09:48.449Z,23.63
2022-11-29T14:12:34.937Z,26.33
2022-11-29T14:15:21.438Z,22.87
2022-11-29T14:18:07.926Z,25.37
2022-11-29T14:20:54.439Z,25.97
2022-11-29T14:23:40.922Z,25.33
2022-11-29T14:26:28.784Z,29.53
2022-11-29T14:29:15.585Z,27.20
2022-11-29T14:32:02.106Z,27.43
2022-11-29T14:34:48.700Z,23.30
2022-11-29T14:37:35.239Z,27.90
2022-11-29T14:40:21.738Z,25.90
2022-11-29T14:43:08.287Z,24.77
2022-11-29T14:45:54.764Z,24.87
2022-11-29T14:48:41.264Z,24.10
2022-11-29T14:51:27.741Z,24.03
2022-11-29T14:54:14.311Z,24.33
2022-11-29T14:57:00.812Z,25.57
2022-11-29T14:59:47.307Z,24.67
2022-11-29T15:02:33.884Z,28.03
2022-11-29T15:05:20.513Z,24.40
2022-11-29T15:08:06.995Z,26.17
2022-11-29T15:10:53.564Z,25.57
2022-11-29T15:13:40.056Z,26.90
2022-11-29T15:16:26.594Z,31.97
2022-11-29T15:19:13.174Z,28.03
2022-11-29T15:21:59.988Z,28.23
2022-11-29T15:24:46.681Z,25.10
2022-11-29T15:27:37.391Z,29.77
2022-11-29T15:30:26.418Z,28.93
2022-11-29T15:33:12.929Z,25.27
2022-11-29T15:35:59.503Z,27.83
2022-11-29T15:38:46.032Z,25.63
2022-11-29T15:41:32.512Z,23.33
2022-11-29T15:44:19.028Z,28.07
2022-11-29T15:47:05.497Z,25.50
2022-11-29T15:49:52.000Z,28.57
2022-11-29T15:52:38.487Z,30.07
2022-11-29T15:55:25.000Z,33.23
2022-11-29T15:58:11.490Z,32.67
2022-11-29T16:00:58.005Z,31.40
2022-11-29T16:03:44.509Z,30.37
2022-11-29T16:06:31.016Z,32.10
2022-11-29T16:09:17.492Z,29.47
2022-11-29T16:12:04.006Z,32.70
2022-11-29T16:14:50.484Z,30.10
2022-11-29T16:17:36.973Z,30.33
2022-11-29T16:20:23.474Z,34.17
2022-11-29T16:23:10.161Z,31.90
2022-11-29T16:25:56.635Z,35.20
2022-11-29T16:28:43.553Z,38.53
2022-11-29T16:31:30.129Z,38.23
2022-11-29T16:34:16.651Z,37.97
2022-11-29T16:37:03.147Z,38.77
2022-11-29T16:39:49.612Z,37.17
2022-11-29T16:42:36.144Z,38.67
2022-11-29T16:45:22.629Z,36.03
2022-11-29T16:48:09.155Z,39.20
2022-11-29T16:50:55.634Z,36.67
2022-11-29T16:53:42.128Z,36.77
2022-11-29T16:56:28.640Z,37.20
2022-11-29T16:59:25.303Z,36.93
2022-11-29T17:02:14.286Z,41.57
2022-11-29T17:05:00.828Z,38.07
2022-11-29T17:07:47.368Z,38.83
2022-11-29T17:10:33.935Z,38.20
2022-11-29T17:13:20.406Z,40.03
2022-11-29T17:16:06.946Z,38.13
2022-11-29T17:18:53.462Z,36.83
2022-11-29T17:21:39.948Z,41.00
2022-11-29T17:24:26.436Z,36.00
2022-11-29T17:27:12.916Z,38.20
2022-11-29T17:29:59.417Z,33.83
2022-11-29T17:32:45.925Z,39.37
2022-11-29T17:35:32.426Z,39.67
2022-11-29T17:38:18.931Z,39.53
2022-11-29T17:41:05.451Z,37.60
2022-11-29T17:43:51.971Z,41.27
2022-11-29T17:46:38.457Z,37.13
2022-11-29T17:49:24.962Z,38.37
2022-11-29T17:52:11.431Z,39.10
2022-11-29T17:54:58.918Z,34.87
2022-11-29T17:57:45.384Z,39.73
2022-11-29T18:00:31.890Z,37.57
2022-11-29T18:03:18.372Z,45.27
2022-11-29T18:06:04.880Z,35.03
2022-11-29T18:08:51.354Z,45.23
2022-11-29T18:11:45.281Z,41.03
2022-11-29T18:14:34.393Z,39.67
2022-11-29T18:17:20.952Z,34.47
2022-11-29T18:20:07.436Z,35.07
2022-11-29T18:22:53.945Z,40.20
2022-11-29T18:25:40.484Z,37.07
2022-11-29T18:28:27.031Z,40.60
2022-11-29T18:31:13.643Z,40.00
2022-11-29T18:34:00.224Z,43.33
2022-11-29T18:36:46.738Z,43.57
2022-11-29T18:39:33.245Z,38.10
2022-11-29T18:42:19.712Z,34.60
2022-11-29T18:45:06.196Z,40.07
2022-11-29T18:47:52.667Z,35.70
2022-11-29T18:50:39.166Z,36.57
2022-11-29T18:53:25.674Z,34.13
2022-11-29T18:56:12.147Z,38.03
2022-11-29T18:58:58.925Z,39.27
2022-11-29T19:01:45.489Z,38.73
2022-11-29T19:04:32.067Z,40.77
2022-11-29T19:07:18.616Z,39.80
2022-11-29T19:10:05.309Z,39.83
2022-11-29T19:12:51.783Z,40.93
2022-11-29T19:15:38.319Z,36.47
2022-11-29T19:18:24.918Z,41.30
2022-11-29T19:21:11.408Z,40.43
2022-11-29T19:23:57.908Z,37.03
2022-11-29T19:26:44.683Z,37.50
2022-11-29T19:29:45.438Z,36.33
2022-11-29T19:32:31.944Z,40.47
2022-11-29T19:35:18.426Z,38.77
2022-11-29T19:38:04.904Z,39.73
2022-11-29T19:40:51.399Z,37.20
2022-11-29T19:43:37.883Z,38.33
2022-11-29T19:46:24.412Z,38.67
2022-11-29T19:49:10.949Z,34.00
2022-11-29T19:51:57.451Z,38.10
2022-11-29T19:54:43.927Z,40.07
2022-11-29T19:57:30.391Z,35.43
2022-11-29T20:00:16.892Z,37.50
2022-11-29T20:03:03.381Z,38.27
2022-11-29T20:05:49.928Z,42.47
2022-11-29T20:08:36.395Z,38.37
2022-11-29T20:11:22.989Z,37.60
2022-11-29T20:14:09.464Z,38.57
2022-11-29T20:16:55.977Z,40.87
2022-11-29T20:19:42.452Z,39.33
2022-11-29T20:22:28.952Z,41.00
2022-11-29T20:25:15.425Z,36.50
2022-11-29T20:28:01.925Z,40.93
2022-11-29T20:30:48.422Z,36.90
2022-11-29T20:33:34.932Z,35.63
2022-11-29T20:36:21.423Z,34.43
2022-11-29T20:39:07.904Z,37.10
2022-11-29T20:41:54.419Z,33.93
2022-11-29T20:44:40.891Z,36.33
2022-11-29T20:47:27.389Z,35.23
2022-11-29T20:50:13.872Z,37.80
2022-11-29T20:53:00.416Z,32.73
2022-11-29T20:55:48.397Z,34.57
2022-11-29T20:58:34.971Z,32.50
2022-11-29T21:01:21.490Z,36.43
2022-11-29T21:04:08.066Z,33.10
2022-11-29T21:06:54.612Z,34.23
2022-11-29T21:09:41.152Z,39.30
2022-11-29T21:12:27.628Z,36.97
2022-11-29T21:15:14.113Z,41.47
2022-11-29T21:18:00.625Z,36.07
2022-11-29T21:20:47.111Z,33.63
2022-11-29T21:23:34.637Z,31.80
2022-11-29T21:26:21.160Z,33.27
2022-11-29T21:29:07.671Z,31.80
2022-11-29T21:31:54.219Z,34.53
2022-11-29T21:34:40.702Z,33.37
2022-11-29T21:37:27.207Z,34.10
2022-11-29T21:40:13.683Z,35.43
2022-11-29T21:43:00.205Z,33.70
2022-11-29T21:45:46.674Z,34.63
2022-11-29T21:48:33.160Z,38.17
2022-11-29T21:51:19.664Z,33.23
2022-11-29T21:54:06.144Z,33.37
2022-11-29T21:56:52.751Z,30.33
2022-11-29T21:59:39.215Z,32.83
2022-11-29T22:02:25.826Z,35.43
2022-11-29T22:05:12.401Z,33.07
2022-11-29T22:07:58.925Z,34.30
2022-11-29T22:10:45.463Z,34.73
2022-11-29T22:13:32.012Z,35.00
2022-11-29T22:16:18.710Z,33.30
2022-11-29T22:19:05.226Z,34.77
2022-11-29T22:21:51.706Z,34.43
2022-11-29T22:24:38.211Z,37.57
2022-11-29T22:27:24.724Z,31.07
2022-11-29T22:30:11.221Z,31.07
2022-11-29T22:32:57.695Z,31.70
2022-11-29T22:35:44.189Z,30.83
2022-11-29T22:38:30.664Z,33.57
2022-11-29T22:41:17.218Z,32.53
2022-11-29T22:44:03.689Z,31.33
2022-11-29T22:46:50.245Z,32.63
2022-11-29T22:49:36.727Z,32.23
2022-11-29T22:52:23.379Z,32.90
2022-11-29T22:55:09.851Z,32.87
2022-11-29T22:57:56.362Z,33.37
2022-11-29T23:00:42.903Z,31.30
2022-11-29T23:03:29.417Z,33.40
2022-11-29T23:06:15.928Z,30.47
2022-11-29T23:09:02.425Z,32.30
2022-11-29T23:11:48.902Z,30.53
2022-11-29T23:14:35.442Z,30.17
2022-11-29T23:17:21.959Z,32.10
2022-11-29T23:20:08.456Z,33.17
2022-11-29T23:22:54.972Z,31.43
2022-11-29T23:25:41.477Z,35.90
2022-11-29T23:28:27.952Z,33.33
2022-11-29T23:31:14.538Z,32.80
2022-11-29T23:34:01.051Z,34.70
2022-11-29T23:36:52.555Z,30.20
2022-11-29T23:39:40.679Z,34.70
2022-11-29T23:42:27.157Z,32.13
2022-11-29T23:45:13.660Z,28.80
2022-11-29T23:48:00.132Z,29.23
2022-11-29T23:50:46.682Z,28.83
2022-11-29T23:53:33.160Z,26.43
2022-11-29T23:56:19.816Z,28.73
2022-11-29T23:59:06.287Z,33.07
